Time;durP1;ratioP1;P1;durP2;ratioP2;P2;SDS_P1;SDS_P2;PMS_P1;PMS_P2;Temp;Humidity;BMP_temperature;BMP_pressure;BME280_temperature;BME280_humidity;BME280_pressure;Samples;Min_cycle;Max_cycle;Signal;HPM_P1;HPM_P2
2022/09/18 00:00:49;;;;;;;11.40;1.60;;;10.00;99.90;;;;;;5089354;28;20162;-40
2022/09/18 00:03:15;;;;;;;15.05;1.90;;;10.00;99.90;;;;;;5095526;28;20438;-43
2022/09/18 00:05:42;;;;;;;10.85;2.25;;;10.00;99.90;;;;;;5075350;28;20155;-39
2022/09/18 00:08:08;;;;;;;9.30;1.80;;;9.90;99.90;;;;;;5097071;28;20414;-39
2022/09/18 00:10:45;;;;;;;10.48;1.70;;;9.90;99.90;;;;;;5093232;28;20538;-39
2022/09/18 00:13:13;;;;;;;11.32;1.80;;;9.80;99.90;;;;;;5097897;28;20482;-39
2022/09/18 00:15:39;;;;;;;13.77;2.17;;;9.80;99.90;;;;;;5087202;28;20453;-39
2022/09/18 00:18:07;;;;;;;7.07;1.73;;;9.80;99.90;;;;;;5094808;28;20044;-38
2022/09/18 00:20:35;;;;;;;12.10;1.60;;;9.70;99.90;;;;;;5096036;28;20124;-46
2022/09/18 00:23:02;;;;;;;9.20;1.77;;;9.70;99.90;;;;;;5078147;28;20096;-49
2022/09/18 00:25:28;;;;;;;14.35;2.20;;;9.70;99.90;;;;;;5087213;28;20043;-38
2022/09/18 00:27:54;;;;;;;6.30;1.70;;;9.60;99.90;;;;;;5096617;28;20130;-38
2022/09/18 00:30:20;;;;;;;10.98;1.70;;;9.60;99.90;;;;;;5095280;28;20058;-48
2022/09/18 00:32:46;;;;;;;15.20;2.40;;;9.60;99.90;;;;;;5088275;28;20047;-48
2022/09/18 00:35:12;;;;;;;8.82;2.00;;;9.50;99.90;;;;;;5079241;28;20506;-46
2022/09/18 00:37:38;;;;;;;11.93;1.77;;;9.50;99.90;;;;;;5095044;28;20164;-38
2022/09/18 00:40:05;;;;;;;12.57;1.90;;;9.50;99.90;;;;;;5094499;28;20981;-38
2022/09/18 00:42:31;;;;;;;7.38;1.63;;;9.50;99.90;;;;;;5077112;28;20048;-38
2022/09/18 00:44:57;;;;;;;12.27;2.28;;;9.50;99.90;;;;;;5095334;28;20043;-47
2022/09/18 00:47:26;;;;;;;9.68;2.50;;;9.50;99.90;;;;;;5094594;28;20427;-39
2022/09/18 00:49:58;;;;;;;13.43;2.35;;;9.50;99.90;;;;;;5094029;28;20071;-47
2022/09/18 00:52:37;;;;;;;7.28;1.75;;;9.50;99.90;;;;;;5095025;28;20407;-47
2022/09/18 00:55:09;;;;;;;11.77;2.13;;;9.60;99.90;;;;;;5097257;28;20044;-48
2022/09/18 00:57:36;;;;;;;;;;;9.60;99.90;;;;;;5095984;28;20080;-38
2022/09/18 01:00:09;;;;;;;11.10;2.22;;;9.70;99.90;;;;;;5082975;28;19946;-49
2022/09/18 01:02:35;;;;;;;10.25;2.05;;;9.70;99.90;;;;;;5098273;28;20040;-38
2022/09/18 01:05:02;;;;;;;10.65;1.90;;;9.80;99.90;;;;;;5101338;28;20079;-38
2022/09/18 01:07:41;;;;;;;11.52;1.60;;;9.80;99.90;;;;;;5062587;28;20110;-39
2022/09/18 01:10:44;;;;;;;10.25;1.90;;;9.80;99.90;;;;;;5089425;28;20170;-38
2022/09/18 01:13:38;;;;;;;11.07;1.98;;;9.80;99.90;;;;;;5080375;28;20067;-38
2022/09/18 01:16:37;;;;;;;9.00;1.88;;;9.80;99.90;;;;;;5101121;28;20039;-38
2022/09/18 01:19:38;;;;;;;8.30;1.75;;;9.80;99.90;;;;;;5080412;27;20048;-38
2022/09/18 01:22:30;;;;;;;11.73;2.53;;;9.80;99.90;;;;;;5045819;28;20263;-42
2022/09/18 01:25:11;;;;;;;9.27;1.90;;;9.80;99.90;;;;;;5079563;28;20134;-47
2022/09/18 01:27:40;;;;;;;13.60;2.30;;;9.90;99.90;;;;;;5084345;28;20047;-39
2022/09/18 01:30:10;;;;;;;12.63;1.92;;;9.90;99.90;;;;;;5079298;28;20055;-39
2022/09/18 01:32:42;;;;;;;11.32;2.65;;;9.90;99.90;;;;;;5109148;27;20443;-39
2022/09/18 01:35:25;;;;;;;6.85;1.60;;;10.00;99.90;;;;;;5081420;28;20051;-39
2022/09/18 01:38:25;;;;;;;11.52;1.80;;;10.00;99.90;;;;;;5083776;28;20543;-39
2022/09/18 01:41:20;;;;;;;11.88;2.08;;;10.10;99.90;;;;;;5098186;27;20050;-38
2022/09/18 01:43:51;;;;;;;12.10;1.95;;;10.10;99.90;;;;;;5077365;28;20058;-39
2022/09/18 01:46:19;;;;;;;10.32;1.88;;;10.10;99.90;;;;;;5100400;28;20047;-38
2022/09/18 01:49:01;;;;;;;11.90;2.40;;;10.20;99.90;;;;;;5080878;28;20079;-39
2022/09/18 01:51:55;;;;;;;10.55;2.20;;;10.20;99.90;;;;;;5095735;27;20043;-38
2022/09/18 01:54:25;;;;;;;10.13;2.15;;;10.30;99.90;;;;;;5097783;28;20356;-38
2022/09/18 01:57:01;;;;;;;12.95;2.10;;;10.30;99.90;;;;;;5083107;28;20262;-38
2022/09/18 01:59:33;;;;;;;11.07;2.65;;;10.30;99.90;;;;;;5098029;28;20075;-38
2022/09/18 02:02:13;;;;;;;10.05;2.00;;;10.30;99.90;;;;;;5098571;27;20039;-38
2022/09/18 02:04:43;;;;;;;12.57;2.13;;;10.30;99.90;;;;;;5080453;27;20040;-38
2022/09/18 02:07:19;;;;;;;9.43;1.77;;;10.30;99.90;;;;;;5100138;28;20046;-39
2022/09/18 02:09:46;;;;;;;7.63;1.65;;;10.30;99.90;;;;;;5092515;28;20616;-48
2022/09/18 02:12:18;;;;;;;11.10;1.70;;;10.30;99.90;;;;;;5084473;27;20108;-39
2022/09/18 02:14:49;;;;;;;9.38;1.70;;;10.30;99.90;;;;;;5094457;28;20059;-39
2022/09/18 02:17:45;;;;;;;10.48;1.98;;;10.30;99.90;;;;;;5098138;28;20040;-38
2022/09/18 02:20:28;;;;;;;10.15;1.90;;;10.30;99.90;;;;;;5097074;28;20085;-38
2022/09/18 02:22:58;;;;;;;8.60;1.60;;;10.30;99.90;;;;;;5098634;27;20393;-39
2022/09/18 02:25:55;;;;;;;10.10;1.90;;;10.30;99.90;;;;;;5080398;28;20134;-39
2022/09/18 02:28:24;;;;;;;8.80;1.70;;;10.20;99.90;;;;;;5100432;27;20408;-39
2022/09/18 02:30:50;;;;;;;9.77;1.83;;;10.30;99.90;;;;;;5087101;28;20054;-39
2022/09/18 02:33:31;;;;;;;11.88;1.85;;;10.20;99.90;;;;;;5098117;27;20059;-38
2022/09/18 02:36:08;;;;;;;6.82;1.42;;;10.30;99.90;;;;;;5097688;28;20070;-38
2022/09/18 02:38:55;;;;;;;7.15;1.92;;;10.30;99.90;;;;;;5077107;28;20181;-39
2022/09/18 02:41:30;;;;;;;9.25;1.55;;;10.30;99.90;;;;;;5089650;28;20086;-39
2022/09/18 02:44:19;;;;;;;10.98;1.80;;;10.30;99.90;;;;;;5081026;28;20049;-39
2022/09/18 02:47:10;;;;;;;12.35;2.00;;;10.40;99.90;;;;;;5115105;27;20581;-39
2022/09/18 02:50:14;;;;;;;11.27;2.10;;;10.40;99.90;;;;;;5100642;27;20052;-38
2022/09/18 02:52:58;;;;;;;8.77;1.85;;;10.40;99.90;;;;;;5079334;28;20403;-39
2022/09/18 02:55:29;;;;;;;9.30;1.50;;;10.40;99.90;;;;;;5079862;28;20525;-39
2022/09/18 02:58:03;;;;;;;8.50;1.77;;;10.40;99.90;;;;;;5095107;28;20319;-39
2022/09/18 03:00:31;;;;;;;12.10;2.03;;;10.50;99.90;;;;;;5097334;28;20426;-49
2022/09/18 03:02:58;;;;;;;14.73;2.20;;;10.50;99.90;;;;;;5062441;28;20042;-50
2022/09/18 03:05:34;;;;;;;12.20;2.67;;;10.40;99.90;;;;;;5076720;28;20047;-49
2022/09/18 03:08:01;;;;;;;10.60;1.73;;;10.40;99.90;;;;;;5083143;28;20047;-49
2022/09/18 03:10:29;;;;;;;9.55;1.40;;;10.40;99.90;;;;;;5095643;28;20388;-48
2022/09/18 03:12:56;;;;;;;8.95;1.70;;;10.50;99.90;;;;;;5092947;27;20169;-49
2022/09/18 03:15:22;;;;;;;12.57;2.35;;;10.50;99.90;;;;;;5094193;28;20058;-49
2022/09/18 03:17:50;;;;;;;9.98;1.63;;;10.60;99.90;;;;;;5081472;28;20577;-51
2022/09/18 03:20:16;;;;;;;10.20;2.22;;;10.60;99.90;;;;;;5080978;28;20136;-51
2022/09/18 03:22:42;;;;;;;7.90;1.40;;;10.70;99.90;;;;;;5079682;28;20044;-50
2022/09/18 03:25:13;;;;;;;10.35;1.75;;;10.70;99.90;;;;;;5086897;28;20135;-39
2022/09/18 03:27:39;;;;;;;5.85;1.40;;;10.70;99.90;;;;;;5116074;27;20043;-52
2022/09/18 03:30:06;;;;;;;10.63;1.60;;;10.70;99.90;;;;;;5061469;28;20070;-47
2022/09/18 03:32:33;;;;;;;6.63;1.38;;;10.80;99.90;;;;;;5081254;28;20494;-49
2022/09/18 03:34:59;;;;;;;7.53;1.60;;;10.80;99.90;;;;;;5097519;28;20047;-51
2022/09/18 03:37:27;;;;;;;10.90;1.30;;;10.80;99.90;;;;;;5097427;27;20746;-38
2022/09/18 03:39:56;;;;;;;6.65;1.90;;;10.80;99.90;;;;;;5096883;28;20047;-38
2022/09/18 03:42:24;;;;;;;9.50;1.80;;;10.80;99.90;;;;;;5090631;27;20525;-39
2022/09/18 03:44:50;;;;;;;9.10;1.58;;;10.80;99.90;;;;;;5094861;28;20481;-49
2022/09/18 03:47:23;;;;;;;9.20;1.42;;;10.80;99.90;;;;;;5077773;28;20371;-48
2022/09/18 03:49:49;;;;;;;9.95;1.20;;;10.80;99.90;;;;;;5060549;28;20051;-47
2022/09/18 03:52:15;;;;;;;11.57;1.58;;;10.80;99.90;;;;;;5079422;28;20047;-39
2022/09/18 03:54:48;;;;;;;8.55;1.73;;;10.80;99.90;;;;;;5095833;28;20164;-40
2022/09/18 03:57:37;;;;;;;11.32;1.60;;;10.70;99.90;;;;;;5075541;28;20074;-39
2022/09/18 04:00:17;;;;;;;7.82;1.30;;;10.80;99.90;;;;;;5064763;28;20051;-38
2022/09/18 04:02:46;;;;;;;6.07;1.23;;;10.70;99.90;;;;;;5076856;28;20469;-39
2022/09/18 04:05:31;;;;;;;11.30;2.13;;;10.70;99.90;;;;;;5096986;28;20040;-39
2022/09/18 04:08:26;;;;;;;9.27;1.48;;;10.70;99.90;;;;;;5056568;28;20096;-49
2022/09/18 04:11:07;;;;;;;6.45;1.25;;;10.70;99.90;;;;;;5100555;28;20067;-38
2022/09/18 04:13:34;;;;;;;11.98;1.65;;;10.70;99.90;;;;;;5079293;28;20086;-40
2022/09/18 04:16:05;;;;;;;8.05;1.25;;;10.70;99.90;;;;;;5090838;28;20101;-47
2022/09/18 04:18:31;;;;;;;7.35;1.45;;;10.70;99.90;;;;;;5079746;28;20662;-49
2022/09/18 04:20:58;;;;;;;8.35;1.35;;;10.70;99.90;;;;;;5076199;28;20052;-48
2022/09/18 04:23:24;;;;;;;11.68;1.80;;;10.70;99.90;;;;;;5082081;28;20062;-47
2022/09/18 04:25:50;;;;;;;8.40;1.33;;;10.60;99.90;;;;;;5081424;28;20043;-49
2022/09/18 04:28:17;;;;;;;8.88;1.70;;;10.60;99.90;;;;;;5097631;28;20203;-39
2022/09/18 04:30:46;;;;;;;12.93;1.55;;;10.60;99.90;;;;;;5102671;28;20069;-38
2022/09/18 04:33:13;;;;;;;8.93;1.20;;;10.60;99.90;;;;;;5093792;28;20047;-38
2022/09/18 04:35:40;;;;;;;8.48;1.98;;;10.50;99.90;;;;;;5097760;28;20075;-39
2022/09/18 04:38:08;;;;;;;8.57;1.50;;;10.50;99.90;;;;;;5080193;28;20043;-39
2022/09/18 04:40:34;;;;;;;8.50;1.40;;;10.50;99.90;;;;;;5097046;28;20483;-44
2022/09/18 04:43:00;;;;;;;10.45;1.67;;;10.50;99.90;;;;;;5104449;28;20351;-38
2022/09/18 04:45:27;;;;;;;8.40;1.17;;;10.50;99.90;;;;;;5082582;28;20048;-39
2022/09/18 04:47:53;;;;;;;5.75;1.60;;;10.50;99.90;;;;;;5101889;28;20050;-37
2022/09/18 04:50:22;;;;;;;10.65;1.73;;;10.50;99.90;;;;;;5081576;28;20075;-38
2022/09/18 04:53:27;;;;;;;8.20;1.33;;;10.50;99.90;;;;;;5080559;28;20052;-39
2022/09/18 04:55:55;;;;;;;7.05;1.27;;;10.50;99.90;;;;;;5065549;28;20048;-38
2022/09/18 04:58:21;;;;;;;9.48;1.75;;;10.50;99.90;;;;;;5100608;28;20055;-38
2022/09/18 05:00:53;;;;;;;9.82;1.20;;;10.60;99.90;;;;;;5105477;27;20055;-38
2022/09/18 05:03:21;;;;;;;7.78;1.70;;;10.60;99.90;;;;;;5069958;27;20051;-39
2022/09/18 05:05:49;;;;;;;11.38;1.45;;;10.60;99.90;;;;;;5078931;28;20055;-38
2022/09/18 05:08:16;;;;;;;8.82;1.48;;;10.60;99.90;;;;;;5097800;27;20522;-50
2022/09/18 05:10:43;;;;;;;9.75;1.45;;;10.60;99.90;;;;;;5096249;28;20044;-49
2022/09/18 05:13:09;;;;;;;7.40;1.27;;;10.60;99.90;;;;;;5080531;28;20063;-52
2022/09/18 05:15:41;;;;;;;8.93;1.50;;;10.70;99.90;;;;;;5080583;28;20056;-47
2022/09/18 05:18:10;;;;;;;9.63;1.50;;;10.70;99.90;;;;;;5063769;28;20043;-50
2022/09/18 05:20:37;;;;;;;7.10;1.20;;;10.70;99.90;;;;;;5080167;28;20058;-46
2022/09/18 05:23:06;;;;;;;7.07;1.80;;;10.70;99.90;;;;;;5065264;28;20126;-47
2022/09/18 05:25:32;;;;;;;5.25;1.27;;;10.70;99.90;;;;;;5096718;28;20087;-52
2022/09/18 05:28:00;;;;;;;9.32;1.38;;;10.70;99.90;;;;;;5041754;28;20043;-51
2022/09/18 05:30:36;;;;;;;10.10;2.03;;;10.70;99.90;;;;;;5071847;28;20185;-54
2022/09/18 05:33:06;;;;;;;15.35;1.88;;;10.70;99.90;;;;;;5092997;28;20375;-53
2022/09/18 05:35:35;;;;;;;5.80;1.47;;;10.70;99.90;;;;;;5076656;28;20043;-39
2022/09/18 05:38:01;;;;;;;7.32;1.88;;;10.60;99.90;;;;;;5094434;27;20398;-39
2022/09/18 05:40:35;;;;;;;11.68;1.65;;;10.60;99.90;;;;;;5092923;27;20083;-40
2022/09/18 05:43:04;;;;;;;8.38;1.73;;;10.60;99.90;;;;;;5075999;28;20047;-39
2022/09/18 05:45:33;;;;;;;8.37;2.00;;;10.60;99.90;;;;;;5093829;28;20075;-39
2022/09/18 05:48:04;;;;;;;6.60;1.73;;;10.60;99.90;;;;;;5043507;28;20050;-39
2022/09/18 05:50:31;;;;;;;6.85;1.25;;;10.60;99.90;;;;;;5093070;28;20127;-39
2022/09/18 05:53:06;;;;;;;8.82;1.27;;;10.60;99.90;;;;;;5084219;28;20129;-40
2022/09/18 05:55:45;;;;;;;7.45;1.58;;;10.60;99.90;;;;;;5098110;28;20130;-39
2022/09/18 05:58:13;;;;;;;9.20;1.58;;;10.60;99.90;;;;;;5115629;27;20369;-38
2022/09/18 06:00:40;;;;;;;6.45;1.38;;;10.60;99.90;;;;;;5079475;27;20047;-38
2022/09/18 06:03:13;;;;;;;8.23;1.55;;;10.60;99.90;;;;;;5078309;28;20413;-38
2022/09/18 06:05:40;;;;;;;9.05;1.80;;;10.50;99.90;;;;;;5097254;27;20527;-38
2022/09/18 06:08:11;;;;;;;9.32;1.45;;;10.50;99.90;;;;;;5062446;28;20108;-39
2022/09/18 06:10:39;;;;;;;7.70;1.45;;;10.50;99.90;;;;;;5094066;27;20075;-37
2022/09/18 06:13:14;;;;;;;6.85;1.25;;;10.50;99.90;;;;;;5092971;27;20056;-38
2022/09/18 06:15:51;;;;;;;8.20;1.40;;;10.50;99.90;;;;;;5076342;28;20043;-39
2022/09/18 06:18:25;;;;;;;9.68;1.73;;;10.50;99.90;;;;;;5093910;28;20036;-52
2022/09/18 06:20:56;;;;;;;9.70;1.63;;;10.50;99.90;;;;;;5093006;28;20043;-37
2022/09/18 06:23:26;;;;;;;9.20;1.30;;;10.60;99.90;;;;;;5077950;28;20043;-46
2022/09/18 06:26:14;;;;;;;8.15;1.67;;;10.60;99.90;;;;;;5093984;27;20048;-53
2022/09/18 06:28:41;;;;;;;8.90;1.50;;;10.60;99.90;;;;;;5076841;28;20047;-39
2022/09/18 06:31:08;;;;;;;11.05;2.03;;;10.60;99.90;;;;;;5093117;28;20051;-38
2022/09/18 06:33:53;;;;;;;8.80;1.52;;;10.60;99.90;;;;;;5089057;28;20051;-38
2022/09/18 06:36:19;;;;;;;6.55;1.35;;;10.60;99.90;;;;;;5073918;28;20428;-48
2022/09/18 06:39:03;;;;;;;11.48;1.70;;;10.60;99.90;;;;;;5073486;28;20482;-47
2022/09/18 06:41:29;;;;;;;6.90;1.80;;;10.60;99.90;;;;;;5074399;28;20578;-49
2022/09/18 06:43:55;;;;;;;13.32;2.28;;;10.60;99.90;;;;;;5092633;28;20047;-49
2022/09/18 06:46:30;;;;;;;10.73;1.52;;;10.60;99.90;;;;;;5090344;27;20052;-49
2022/09/18 06:48:58;;;;;;;8.85;1.45;;;10.70;99.90;;;;;;5044861;28;20035;-53
2022/09/18 06:51:24;;;;;;;8.95;1.98;;;10.70;99.90;;;;;;5089880;28;20599;-38
2022/09/18 06:54:03;;;;;;;4.95;1.00;;;10.70;99.90;;;;;;5094343;28;20423;-38
2022/09/18 06:56:33;;;;;;;8.88;1.55;;;10.70;99.90;;;;;;5092313;27;20427;-52
2022/09/18 06:59:00;;;;;;;9.57;1.77;;;10.70;99.90;;;;;;5074154;28;20135;-38
2022/09/18 07:01:26;;;;;;;10.05;1.85;;;10.70;99.90;;;;;;5073688;28;20043;-45
2022/09/18 07:04:04;;;;;;;3.28;1.20;;;10.70;99.90;;;;;;5043399;28;20063;-51
2022/09/18 07:06:36;;;;;;;7.63;1.45;;;10.70;99.90;;;;;;5091905;28;20043;-49
2022/09/18 07:09:02;;;;;;;9.77;1.70;;;10.80;99.90;;;;;;5094880;28;20050;-50
2022/09/18 07:11:47;;;;;;;7.95;1.35;;;10.80;99.90;;;;;;5096715;27;20058;-52
2022/09/18 07:14:13;;;;;;;9.15;1.92;;;10.80;99.90;;;;;;5076197;28;20445;-50
2022/09/18 07:16:40;;;;;;;7.05;1.20;;;10.80;99.90;;;;;;5089757;27;20046;-48
2022/09/18 07:19:06;;;;;;;7.72;1.30;;;10.80;99.90;;;;;;5090527;27;20083;-49
2022/09/18 07:21:34;;;;;;;8.10;1.50;;;10.90;99.90;;;;;;5096086;27;20035;-49
2022/09/18 07:24:00;;;;;;;8.00;1.83;;;10.90;99.90;;;;;;5094533;28;20103;-50
2022/09/18 07:26:26;;;;;;;4.00;1.30;;;10.90;99.90;;;;;;5093085;28;20079;-50
2022/09/18 07:28:52;;;;;;;6.13;1.08;;;10.90;99.90;;;;;;5092199;28;20046;-47
2022/09/18 07:31:24;;;;;;;10.70;4.50;;;11.00;99.90;;;;;;5075287;28;20047;-38
2022/09/18 07:33:54;;;;;;;5.90;1.23;;;11.00;99.90;;;;;;5078176;28;20039;-38
2022/09/18 07:36:22;;;;;;;8.32;1.42;;;11.00;99.90;;;;;;5080092;28;20151;-38
2022/09/18 07:38:51;;;;;;;10.07;1.73;;;11.00;99.90;;;;;;5094848;28;20110;-38
2022/09/18 07:41:18;;;;;;;3.75;1.27;;;11.00;99.90;;;;;;5075105;28;20036;-38
2022/09/18 07:43:47;;;;;;;6.85;1.33;;;11.10;99.90;;;;;;5092353;27;20040;-37
2022/09/18 07:46:14;;;;;;;8.85;1.48;;;11.10;99.90;;;;;;5095061;27;20153;-38
2022/09/18 07:48:40;;;;;;;8.35;1.95;;;11.00;99.90;;;;;;5078043;28;20388;-38
2022/09/18 07:51:15;;;;;;;8.18;1.40;;;11.00;99.90;;;;;;5076227;28;20043;-38
2022/09/18 07:53:46;;;;;;;6.22;1.55;;;11.00;99.90;;;;;;5079148;28;20066;-38
2022/09/18 07:56:12;;;;;;;8.68;1.60;;;11.00;99.90;;;;;;5075346;28;20817;-37
2022/09/18 07:58:39;;;;;;;9.10;1.95;;;11.00;99.90;;;;;;5089656;28;20046;-37
2022/09/18 08:01:24;;;;;;;8.90;1.52;;;10.90;99.90;;;;;;5091911;28;20047;-54
2022/09/18 08:03:54;;;;;;;10.98;2.08;;;10.80;99.90;;;;;;5077520;28;20116;-38
2022/09/18 08:06:20;;;;;;;6.18;1.70;;;10.90;99.90;;;;;;5092738;28;20109;-38
2022/09/18 08:09:12;;;;;;;;;;;10.80;99.90;;;;;;5093809;28;20058;-38
2022/09/18 08:12:04;;;;;;;6.72;1.50;;;10.80;99.90;;;;;;5093279;28;20398;-38
2022/09/18 08:14:49;;;;;;;7.20;1.48;;;10.80;99.90;;;;;;5093446;28;20067;-38
2022/09/18 08:17:42;;;;;;;6.32;1.30;;;10.80;99.90;;;;;;5095396;27;20047;-38
2022/09/18 08:20:18;;;;;;;8.10;1.60;;;10.80;99.90;;;;;;5082767;28;20062;-38
2022/09/18 08:22:53;;;;;;;6.03;1.40;;;10.80;99.90;;;;;;5083514;27;20048;-39
2022/09/18 08:25:26;;;;;;;11.35;1.60;;;10.80;99.90;;;;;;5080357;28;20092;-37
2022/09/18 08:27:52;;;;;;;5.78;1.88;;;10.80;99.90;;;;;;5094626;28;20573;-38
2022/09/18 08:30:45;;;;;;;;;;;10.80;99.90;;;;;;5084792;28;20043;-39
2022/09/18 08:33:13;;;;;;;8.93;1.35;;;10.90;99.90;;;;;;5063719;28;19920;-38
2022/09/18 08:35:40;;;;;;;9.32;1.50;;;10.90;99.90;;;;;;5080239;28;20056;-39
2022/09/18 08:38:21;;;;;;;8.10;1.83;;;10.90;99.90;;;;;;5091988;28;20057;-38
2022/09/18 08:41:16;;;;;;;2.88;1.20;;;11.00;99.90;;;;;;5098681;28;20139;-39
2022/09/18 08:44:04;;;;;;;7.53;1.38;;;11.10;99.90;;;;;;5062735;28;20047;-39
2022/09/18 08:46:47;;;;;;;7.05;1.40;;;11.10;99.90;;;;;;5114859;27;20073;-39
2022/09/18 08:49:36;;;;;;;9.35;1.55;;;11.10;99.90;;;;;;5097216;27;20046;-38
2022/09/18 08:52:20;;;;;;;6.22;1.80;;;11.20;99.90;;;;;;5079771;28;20575;-39
2022/09/18 08:54:58;;;;;;;6.63;1.52;;;11.20;99.90;;;;;;5098535;28;20051;-42
2022/09/18 08:57:42;;;;;;;8.40;1.30;;;11.30;99.90;;;;;;5098500;28;20043;-39
2022/09/18 09:00:30;;;;;;;10.43;1.42;;;11.30;99.90;;;;;;5066466;28;20043;-39
2022/09/18 09:03:50;;;;;;;8.30;1.10;;;11.30;99.90;;;;;;5085453;28;20103;-40
2022/09/18 09:07:13;;;;;;;4.40;1.20;;;11.40;99.90;;;;;;5096973;27;20092;-39
2022/09/18 09:10:16;;;;;;;6.50;1.30;;;11.40;99.90;;;;;;5063806;28;20305;-40
2022/09/18 09:12:50;;;;;;;7.57;1.88;;;11.40;99.90;;;;;;5080028;28;20545;-39
2022/09/18 09:15:29;;;;;;;8.88;1.55;;;11.40;99.90;;;;;;5065875;28;20637;-55
2022/09/18 09:17:59;;;;;;;7.78;1.20;;;11.40;99.90;;;;;;5095281;28;20078;-52
2022/09/18 09:20:28;;;;;;;5.57;1.27;;;11.40;99.90;;;;;;5082139;28;20082;-55
2022/09/18 09:23:10;;;;;;;8.00;1.83;;;11.50;99.90;;;;;;5090997;28;20047;-54
2022/09/18 09:25:49;;;;;;;5.50;1.50;;;11.50;99.90;;;;;;5097449;27;20058;-52
2022/09/18 09:29:00;;;;;;;4.45;1.33;;;11.60;99.90;;;;;;5087784;28;20043;-55
2022/09/18 09:31:51;;;;;;;2.80;1.08;;;11.60;99.90;;;;;;5074923;28;20394;-53
2022/09/18 09:34:50;;;;;;;5.60;1.50;;;11.60;99.90;;;;;;5091800;27;20521;-52
2022/09/18 09:37:41;;;;;;;6.65;1.55;;;11.60;99.90;;;;;;5096675;28;20271;-54
2022/09/18 09:40:20;;;;;;;7.15;1.38;;;11.60;99.90;;;;;;5077336;28;20055;-55
2022/09/18 09:43:18;;;;;;;7.57;1.23;;;11.70;99.90;;;;;;5060067;28;20044;-38
2022/09/18 09:45:51;;;;;;;3.22;1.20;;;11.70;99.90;;;;;;5076326;28;20050;-39
2022/09/18 09:48:45;;;;;;;5.10;1.13;;;11.70;99.90;;;;;;5096102;28;20136;-39
2022/09/18 09:51:31;;;;;;;7.97;1.40;;;11.70;99.90;;;;;;5097510;28;20060;-55
2022/09/18 09:54:00;;;;;;;7.13;1.10;;;11.70;99.90;;;;;;5074173;28;20498;-40
2022/09/18 09:56:47;;;;;;;5.32;1.23;;;11.60;99.90;;;;;;5060382;28;20578;-39
2022/09/18 09:59:39;;;;;;;7.00;1.10;;;11.60;99.90;;;;;;5094806;28;20380;-41
2022/09/18 10:02:46;;;;;;;16.27;11.02;;;11.70;99.90;;;;;;5108404;27;20040;-39
2022/09/18 10:05:37;;;;;;;2.58;0.90;;;11.70;99.90;;;;;;5091856;28;20044;-38
2022/09/18 10:08:22;;;;;;;6.75;1.15;;;11.60;99.90;;;;;;5070077;27;20392;-37
2022/09/18 10:10:55;;;;;;;5.22;1.23;;;11.60;99.90;;;;;;5077632;27;20089;-39
2022/09/18 10:13:32;;;;;;;4.43;1.48;;;11.60;99.90;;;;;;5088449;28;20144;-38
2022/09/18 10:16:21;;;;;;;7.53;1.83;;;11.60;99.90;;;;;;5091653;28;20120;-38
2022/09/18 10:18:49;;;;;;;8.13;2.40;;;11.60;99.90;;;;;;5072242;28;20751;-38
2022/09/18 10:21:23;;;;;;;10.10;1.67;;;11.60;99.90;;;;;;5071465;28;20044;-38
2022/09/18 10:23:52;;;;;;;9.48;1.50;;;11.60;99.90;;;;;;5088250;27;20482;-38
2022/09/18 10:26:26;;;;;;;8.38;1.25;;;11.60;99.90;;;;;;5093744;27;20042;-38
2022/09/18 10:28:52;;;;;;;7.10;1.58;;;11.60;99.90;;;;;;5073755;28;20043;-50
2022/09/18 10:31:20;;;;;;;9.02;1.65;;;11.60;99.90;;;;;;5051619;28;20078;-39
2022/09/18 10:33:52;;;;;;;7.00;1.17;;;11.70;99.90;;;;;;5079439;28;20048;-38
2022/09/18 10:36:52;;;;;;;6.90;1.52;;;11.80;99.90;;;;;;5075625;28;20047;-38
2022/09/18 10:39:47;;;;;;;8.65;1.20;;;11.80;99.90;;;;;;5099493;27;20042;-39
2022/09/18 10:42:16;;;;;;;9.43;1.40;;;11.80;99.90;;;;;;5075491;28;20043;-38
2022/09/18 10:44:52;;;;;;;6.75;1.30;;;11.90;99.90;;;;;;5074431;28;20146;-40
2022/09/18 10:47:27;;;;;;;8.43;1.73;;;11.80;99.90;;;;;;5090776;28;20043;-39
2022/09/18 10:50:04;;;;;;;7.90;1.33;;;11.90;99.90;;;;;;5072362;28;20050;-38
2022/09/18 10:52:39;;;;;;;6.43;1.80;;;12.00;99.90;;;;;;5089867;27;20047;-38
2022/09/18 10:55:24;;;;;;;10.25;2.67;;;12.00;99.90;;;;;;5089756;28;20494;-39
2022/09/18 10:58:14;;;;;;;7.97;1.60;;;12.00;99.90;;;;;;5078078;28;20491;-39
2022/09/18 11:01:13;;;;;;;7.82;1.90;;;12.00;99.90;;;;;;5091523;28;20039;-38
2022/09/18 11:04:02;;;;;;;8.98;3.25;;;12.10;99.90;;;;;;5107965;27;20418;-39
2022/09/18 11:06:34;;;;;;;7.47;2.47;;;12.10;99.90;;;;;;5071361;28;20066;-39
2022/09/18 11:09:38;;;;;;;8.43;2.03;;;12.10;99.90;;;;;;5089842;27;20420;-40
2022/09/18 11:12:22;;;;;;;11.50;1.92;;;12.10;99.90;;;;;;5088491;28;20054;-52
2022/09/18 11:14:50;;;;;;;;;;;12.10;99.90;;;;;;5068166;28;20063;-53
2022/09/18 11:17:24;;;;;;;10.50;1.70;;;12.00;99.90;;;;;;5065395;28;19924;-50
2022/09/18 11:19:53;;;;;;;5.97;1.50;;;12.00;99.90;;;;;;5068105;28;20055;-52
2022/09/18 11:22:43;;;;;;;6.65;1.52;;;12.00;99.90;;;;;;5032996;28;20051;-52
2022/09/18 11:25:35;;;;;;;8.20;1.38;;;12.00;99.90;;;;;;5056375;28;20457;-51
2022/09/18 11:28:39;;;;;;;10.75;2.13;;;11.90;99.90;;;;;;5034218;28;20048;-39
2022/09/18 11:31:20;;;;;;;7.77;1.30;;;12.00;99.90;;;;;;5057777;28;20147;-43
2022/09/18 11:33:57;;;;;;;6.15;1.13;;;12.10;99.90;;;;;;5053291;28;20090;-39
2022/09/18 11:36:32;;;;;;;10.07;1.95;;;12.10;99.90;;;;;;5084666;28;20044;-51
2022/09/18 11:39:02;;;;;;;5.63;1.60;;;12.20;99.90;;;;;;5034953;28;20044;-51
2022/09/18 11:41:37;;;;;;;7.78;1.77;;;12.30;99.90;;;;;;5067747;28;20506;-53
2022/09/18 11:44:18;;;;;;;10.32;1.88;;;12.40;99.90;;;;;;5047912;28;20055;-52
2022/09/18 11:47:20;;;;;;;8.55;1.95;;;12.40;99.90;;;;;;5069937;28;20495;-53
2022/09/18 11:50:14;;;;;;;9.05;1.63;;;12.50;99.90;;;;;;5064333;28;20361;-53
2022/09/18 11:52:51;;;;;;;11.10;1.80;;;12.60;99.90;;;;;;5067564;28;20052;-39
2022/09/18 11:55:37;;;;;;;8.48;1.35;;;12.60;99.90;;;;;;5065724;28;21080;-39
2022/09/18 11:58:16;;;;;;;8.45;1.90;;;12.70;99.90;;;;;;5085650;28;20489;-39
2022/09/18 12:01:11;;;;;;;8.43;1.55;;;12.70;99.90;;;;;;5051214;28;20870;-39
2022/09/18 12:03:46;;;;;;;9.60;1.88;;;12.80;99.90;;;;;;5067169;28;20053;-52
2022/09/18 12:06:46;;;;;;;9.52;1.85;;;13.00;99.90;;;;;;5054746;28;20180;-56
2022/09/18 12:09:27;;;;;;;10.57;1.92;;;13.10;99.90;;;;;;5050626;28;20115;-39
2022/09/18 12:12:15;;;;;;;10.75;2.45;;;13.20;99.90;;;;;;5067935;28;20045;-40
2022/09/18 12:14:54;;;;;;;9.15;1.70;;;13.40;99.90;;;;;;5072618;28;20043;-39
2022/09/18 12:18:00;;;;;;;6.80;2.00;;;13.40;99.90;;;;;;5073867;28;20148;-39
2022/09/18 12:20:57;;;;;;;9.20;1.80;;;13.60;99.90;;;;;;5056307;28;20543;-39
2022/09/18 12:23:25;;;;;;;5.88;1.50;;;13.50;99.90;;;;;;5071383;28;20127;-51
2022/09/18 12:26:30;;;;;;;7.78;1.65;;;13.60;99.90;;;;;;5070176;28;20365;-52
2022/09/18 12:29:17;;;;;;;8.07;1.40;;;13.70;99.90;;;;;;5088530;28;20039;-50
2022/09/18 12:32:06;;;;;;;7.88;1.85;;;13.60;99.90;;;;;;5085906;28;20425;-51
2022/09/18 12:35:00;;;;;;;7.57;1.40;;;13.60;99.90;;;;;;5092904;28;20382;-50
2022/09/18 12:37:32;;;;;;;5.55;1.60;;;13.70;99.90;;;;;;5087886;28;20054;-50
2022/09/18 12:40:26;;;;;;;9.57;1.75;;;13.80;99.90;;;;;;5080967;28;20249;-52
2022/09/18 12:43:11;;;;;;;9.93;1.58;;;13.70;99.90;;;;;;5089292;28;20148;-49
2022/09/18 12:45:56;;;;;;;8.93;2.03;;;13.70;99.90;;;;;;5054209;28;20044;-51
2022/09/18 12:48:41;;;;;;;7.72;2.13;;;13.70;99.90;;;;;;5086945;28;20123;-52
2022/09/18 12:51:27;;;;;;;6.82;1.73;;;13.60;99.90;;;;;;5074111;28;20054;-49
2022/09/18 12:54:19;;;;;;;11.52;2.60;;;13.70;99.90;;;;;;5081983;28;20532;-53
2022/09/18 12:57:27;;;;;;;7.80;1.42;;;13.70;99.90;;;;;;5072149;28;20075;-52
2022/09/18 13:00:02;;;;;;;5.88;1.55;;;13.70;99.90;;;;;;5091020;28;20401;-51
2022/09/18 13:02:53;;;;;;;8.77;1.90;;;13.70;99.90;;;;;;5074031;28;20084;-51
2022/09/18 13:05:32;;;;;;;8.25;1.55;;;13.60;99.90;;;;;;5092393;27;20047;-51
2022/09/18 13:08:17;;;;;;;12.90;2.28;;;13.50;99.90;;;;;;5112264;27;20043;-51
2022/09/18 13:10:46;;;;;;;12.63;2.30;;;13.50;99.90;;;;;;5089469;28;20059;-50
2022/09/18 13:13:45;;;;;;;7.50;1.45;;;13.40;99.90;;;;;;5065975;28;20051;-53
2022/09/18 13:16:14;;;;;;;6.68;1.48;;;13.40;99.90;;;;;;5091084;28;20082;-53
2022/09/18 13:18:46;;;;;;;9.15;1.45;;;13.30;99.90;;;;;;5093478;28;20051;-53
2022/09/18 13:21:22;;;;;;;9.60;2.03;;;13.40;99.90;;;;;;5092211;28;20139;-53
2022/09/18 13:23:50;;;;;;;10.35;1.85;;;13.40;99.90;;;;;;5093853;27;20485;-39
2022/09/18 13:26:18;;;;;;;5.32;1.30;;;13.40;99.90;;;;;;5093973;28;20235;-39
2022/09/18 13:28:44;;;;;;;5.63;1.20;;;13.40;99.90;;;;;;5095221;28;20445;-39
2022/09/18 13:31:20;;;;;;;11.00;2.10;;;13.40;99.90;;;;;;5058826;28;20406;-39
2022/09/18 13:34:14;;;;;;;6.38;1.20;;;13.40;99.90;;;;;;5092373;28;20047;-40